createdAt,value
2018-11-06T00:01:14.520Z,99780.73
2018-11-06T00:03:45.989Z,99786.92
2018-11-06T00:06:13.748Z,99790.48
2018-11-06T00:08:41.493Z,99783.38
2018-11-06T00:11:10.162Z,99787.16
2018-11-06T00:13:38.269Z,99782.31
2018-11-06T00:16:06.741Z,99769.50
2018-11-06T00:18:34.469Z,99770.39
2018-11-06T00:21:02.220Z,99781.22
2018-11-06T00:23:29.996Z,99785.80
2018-11-06T00:25:57.683Z,99789.05
2018-11-06T00:28:25.409Z,99795.31
2018-11-06T00:30:53.170Z,99790.79
2018-11-06T00:33:20.941Z,99787.38
2018-11-06T00:35:48.645Z,99788.30
2018-11-06T00:38:16.337Z,99784.53
2018-11-06T00:40:44.034Z,99781.63
2018-11-06T00:43:11.717Z,99778.91
2018-11-06T00:45:39.448Z,99779.94
2018-11-06T00:48:07.157Z,99785.11
2018-11-06T00:50:34.846Z,99789.70
2018-11-06T00:53:02.573Z,99787.73
2018-11-06T00:55:30.217Z,99798.38
2018-11-06T00:57:57.913Z,99804.53
2018-11-06T01:00:25.654Z,99804.20
2018-11-06T01:02:53.357Z,99788.08
2018-11-06T01:05:21.102Z,99786.20
2018-11-06T01:07:48.868Z,99779.66
2018-11-06T01:10:16.737Z,99795.59
2018-11-06T01:12:44.396Z,99797.75
2018-11-06T01:15:13.189Z,99796.65
2018-11-06T01:17:41.749Z,99789.27
2018-11-06T01:20:12.210Z,99787.45
2018-11-06T01:22:39.978Z,99788.11
2018-11-06T01:25:08.724Z,99785.86
2018-11-06T01:27:36.662Z,99786.79
2018-11-06T01:30:08.327Z,99787.75
2018-11-06T01:32:36.201Z,99790.31
2018-11-06T01:35:04.770Z,99780.50
2018-11-06T01:37:32.520Z,99778.55
2018-11-06T01:40:01.272Z,99778.23
2018-11-06T01:42:28.982Z,99782.44
2018-11-06T01:44:56.689Z,99780.02
2018-11-06T01:47:24.437Z,99770.64
2018-11-06T01:49:52.125Z,99777.55
2018-11-06T01:52:19.820Z,99771.01
2018-11-06T01:54:47.538Z,99779.55
2018-11-06T01:57:15.252Z,99777.12
2018-11-06T02:02:22.990Z,99779.24
2018-11-06T02:04:50.635Z,99782.85
2018-11-06T02:07:18.311Z,99780.08
2018-11-06T02:09:45.994Z,99784.25
2018-11-06T02:12:13.708Z,99789.44
2018-11-06T02:14:41.329Z,99782.13
2018-11-06T02:17:09.143Z,99778.66
2018-11-06T02:19:36.923Z,99778.43
2018-11-06T02:22:04.788Z,99777.23
2018-11-06T02:24:32.473Z,99777.77
2018-11-06T02:27:00.159Z,99776.05
2018-11-06T02:29:27.828Z,99767.67
2018-11-06T02:31:55.552Z,99767.83
2018-11-06T02:34:24.017Z,99759.62
2018-11-06T02:36:51.733Z,99762.23
2018-11-06T02:39:19.473Z,99773.97
2018-11-06T02:41:47.138Z,99765.77
2018-11-06T02:44:14.885Z,99771.55
2018-11-06T02:46:42.678Z,99770.59
2018-11-06T02:49:10.427Z,99754.59
2018-11-06T02:51:38.092Z,99753.68
2018-11-06T02:54:05.860Z,99758.88
2018-11-06T02:56:33.569Z,99766.55
2018-11-06T02:59:01.369Z,99774.91
2018-11-06T03:01:29.069Z,99781.55
2018-11-06T03:03:56.756Z,99785.01
2018-11-06T03:06:24.474Z,99796.17
2018-11-06T03:08:52.204Z,99792.45
2018-11-06T03:11:19.852Z,99794.81
2018-11-06T03:13:47.485Z,99790.36
2018-11-06T03:16:15.221Z,99799.53
2018-11-06T03:18:42.976Z,99794.74
2018-11-06T03:21:10.695Z,99789.16
2018-11-06T03:23:38.422Z,99784.55
2018-11-06T03:26:06.261Z,99789.45
2018-11-06T03:28:33.956Z,99792.84
2018-11-06T03:31:01.676Z,99789.11
2018-11-06T03:33:29.353Z,99787.75
2018-11-06T03:35:57.015Z,99794.83
2018-11-06T03:38:24.760Z,99791.25
2018-11-06T03:40:52.583Z,99785.27
2018-11-06T03:43:24.244Z,99791.14
2018-11-06T03:45:52.029Z,99788.91
2018-11-06T03:48:19.691Z,99787.06
2018-11-06T03:50:47.486Z,99792.94
2018-11-06T03:53:15.184Z,99792.83
2018-11-06T03:55:42.871Z,99796.19
2018-11-06T03:58:10.604Z,99799.68
2018-11-06T04:00:38.265Z,99804.38
2018-11-06T04:03:06.081Z,99810.70
2018-11-06T04:05:33.794Z,99811.08
2018-11-06T04:08:01.524Z,99812.92
2018-11-06T04:10:29.270Z,99818.06
2018-11-06T04:12:56.956Z,99817.83
2018-11-06T04:15:24.728Z,99816.81
2018-11-06T04:17:52.414Z,99803.75
2018-11-06T04:20:20.065Z,99793.80
2018-11-06T04:22:47.811Z,99788.46
2018-11-06T04:25:15.604Z,99785.80
2018-11-06T04:27:43.352Z,99780.02
2018-11-06T04:30:12.484Z,99779.29
2018-11-06T04:32:40.941Z,99772.35
2018-11-06T04:35:09.194Z,99769.24
2018-11-06T04:37:37.577Z,99775.81
2018-11-06T04:40:07.317Z,99778.75
2018-11-06T04:42:35.213Z,99776.04
2018-11-06T04:45:03.040Z,99776.86
2018-11-06T04:47:30.729Z,99786.59
2018-11-06T04:49:58.449Z,99779.45
2018-11-06T04:52:26.108Z,99776.97
2018-11-06T04:54:53.917Z,99787.95
2018-11-06T04:57:21.604Z,99787.74
2018-11-06T04:59:49.375Z,99780.59
2018-11-06T05:02:17.342Z,99778.81
2018-11-06T05:04:44.969Z,99781.48
2018-11-06T05:07:12.732Z,99777.36
2018-11-06T05:09:40.388Z,99782.22
2018-11-06T05:12:08.144Z,99786.88
2018-11-06T05:14:35.816Z,99783.81
2018-11-06T05:17:03.508Z,99790.38
2018-11-06T05:19:31.241Z,99799.80
2018-11-06T05:21:59.174Z,99794.11
2018-11-06T05:24:26.872Z,99788.27
2018-11-06T05:26:55.484Z,99792.90
2018-11-06T05:29:23.148Z,99785.27
2018-11-06T05:31:50.810Z,99787.41
2018-11-06T05:34:18.427Z,99784.69
2018-11-06T05:36:46.078Z,99787.70
2018-11-06T05:39:13.923Z,99788.56
2018-11-06T05:41:41.573Z,99791.20
2018-11-06T05:44:09.321Z,99796.82
2018-11-06T05:46:36.984Z,99785.27
2018-11-06T05:49:04.699Z,99794.34
2018-11-06T05:51:36.088Z,99796.88
2018-11-06T05:54:03.979Z,99802.50
2018-11-06T05:56:31.613Z,99796.53
2018-11-06T05:58:59.309Z,99800.76
2018-11-06T06:01:27.420Z,99797.02
2018-11-06T06:03:55.105Z,99793.91
2018-11-06T06:06:22.809Z,99799.11
2018-11-06T06:08:50.537Z,99796.28
2018-11-06T06:11:18.432Z,99808.23
2018-11-06T06:13:45.937Z,99808.80
2018-11-06T06:16:13.704Z,99816.81
2018-11-06T06:18:41.482Z,99820.89
2018-11-06T06:21:09.249Z,99826.91
2018-11-06T06:23:36.986Z,99821.30
2018-11-06T06:26:04.781Z,99822.12
2018-11-06T06:28:32.753Z,99834.50
2018-11-06T06:31:00.381Z,99829.83
2018-11-06T06:33:28.052Z,99819.53
2018-11-06T06:35:55.733Z,99819.97
2018-11-06T06:38:23.437Z,99821.68
2018-11-06T06:40:51.152Z,99824.54
2018-11-06T06:43:18.751Z,99826.97
2018-11-06T06:45:46.504Z,99825.61
2018-11-06T06:48:14.265Z,99828.56
2018-11-06T06:50:42.039Z,99824.64
2018-11-06T06:53:09.816Z,99819.31
2018-11-06T06:55:37.525Z,99816.10
2018-11-06T06:58:05.190Z,99823.67
2018-11-06T07:00:32.922Z,99808.72
2018-11-06T07:03:00.589Z,99820.27
2018-11-06T07:05:28.379Z,99817.35
2018-11-06T07:07:56.105Z,99819.83
2018-11-06T07:10:23.820Z,99832.30
2018-11-06T07:12:51.833Z,99816.73
2018-11-06T07:15:20.712Z,99818.77
2018-11-06T07:17:49.243Z,99820.66
2018-11-06T07:20:22.409Z,99816.78
2018-11-06T07:22:50.144Z,99806.78
2018-11-06T07:25:17.888Z,99814.01
2018-11-06T07:27:46.536Z,99815.55
2018-11-06T07:30:16.944Z,99816.63
2018-11-06T07:32:45.035Z,99818.06
2018-11-06T07:35:13.471Z,99823.61
2018-11-06T07:37:41.510Z,99821.38
2018-11-06T07:40:11.001Z,99827.05
2018-11-06T07:42:38.995Z,99825.16
2018-11-06T07:45:10.023Z,99819.61
2018-11-06T07:47:38.557Z,99813.10
2018-11-06T07:50:08.311Z,99819.42
2018-11-06T07:52:37.648Z,99813.53
2018-11-06T07:55:08.876Z,99809.79
2018-11-06T07:57:37.596Z,99818.22
2018-11-06T08:00:12.861Z,99821.98
2018-11-06T08:02:41.937Z,99819.98
2018-11-06T08:05:10.469Z,99818.50
2018-11-06T08:07:38.869Z,99811.94
2018-11-06T08:10:08.584Z,99819.86
2018-11-06T08:12:37.338Z,99816.05
2018-11-06T08:15:06.904Z,99805.08
2018-11-06T08:17:35.401Z,99803.69
2018-11-06T08:20:07.169Z,99811.77
2018-11-06T08:22:35.990Z,99806.42
2018-11-06T08:25:04.815Z,99801.29
2018-11-06T08:27:33.629Z,99792.68
2018-11-06T08:30:02.198Z,99787.58
2018-11-06T08:32:31.065Z,99789.27
2018-11-06T08:34:58.758Z,99794.25
2018-11-06T08:37:27.605Z,99785.53
2018-11-06T08:39:55.988Z,99783.95
2018-11-06T08:42:25.376Z,99784.77
2018-11-06T08:44:53.838Z,99777.95
2018-11-06T08:47:22.340Z,99783.07
2018-11-06T08:49:50.341Z,99782.38
2018-11-06T08:52:19.241Z,99785.42
2018-11-06T08:54:47.504Z,99787.52
2018-11-06T08:57:16.249Z,99781.01
2018-11-06T08:59:45.409Z,99778.09
2018-11-06T09:02:17.374Z,99782.47
2018-11-06T09:04:45.198Z,99776.56
2018-11-06T09:07:12.910Z,99782.39
2018-11-06T09:09:40.649Z,99791.44
2018-11-06T09:12:08.322Z,99783.34
2018-11-06T09:14:36.753Z,99783.68
2018-11-06T09:17:05.045Z,99785.53
2018-11-06T09:19:33.308Z,99776.08
2018-11-06T09:22:01.565Z,99767.38
2018-11-06T09:24:29.380Z,99759.88
2018-11-06T09:26:57.736Z,99758.89
2018-11-06T09:29:25.407Z,99751.80
2018-11-06T09:31:53.617Z,99757.09
2018-11-06T09:34:21.482Z,99756.59
2018-11-06T09:36:49.333Z,99767.92
2018-11-06T09:39:18.049Z,99759.64
2018-11-06T09:41:46.218Z,99773.39
2018-11-06T09:44:14.949Z,99777.38
2018-11-06T09:46:43.683Z,99780.17
2018-11-06T09:49:12.045Z,99780.52
2018-11-06T09:51:40.062Z,99785.26
2018-11-06T09:54:08.540Z,99788.41
2018-11-06T09:56:36.638Z,99777.67
2018-11-06T09:59:04.916Z,99776.57
2018-11-06T10:01:33.277Z,99777.86
2018-11-06T10:04:02.064Z,99782.66
2018-11-06T10:06:30.318Z,99780.48
2018-11-06T10:08:58.865Z,99780.22
2018-11-06T10:11:27.117Z,99779.48
2018-11-06T10:13:55.837Z,99779.23
2018-11-06T10:16:24.317Z,99783.23
2018-11-06T10:18:52.909Z,99772.63
2018-11-06T10:21:21.821Z,99768.58
2018-11-06T10:23:49.772Z,99760.64
2018-11-06T10:26:17.530Z,99756.38
2018-11-06T10:28:45.225Z,99751.47
2018-11-06T10:31:12.977Z,99749.27
2018-11-06T10:33:40.693Z,99741.61
2018-11-06T10:36:08.467Z,99733.13
2018-11-06T10:38:36.215Z,99735.09
2018-11-06T10:41:03.916Z,99733.98
2018-11-06T10:43:31.612Z,99722.22
2018-11-06T10:45:59.321Z,99718.91
2018-11-06T10:48:27.072Z,99716.20
2018-11-06T10:50:54.836Z,99717.30
2018-11-06T10:53:22.555Z,99707.97
2018-11-06T10:55:50.274Z,99702.76
2018-11-06T10:58:18.029Z,99702.20
2018-11-06T11:00:51.249Z,99699.72
2018-11-06T11:03:24.648Z,99699.44
2018-11-06T11:05:52.358Z,99690.36
2018-11-06T11:08:20.096Z,99681.55
2018-11-06T11:10:51.396Z,99683.47
2018-11-06T11:13:19.258Z,99679.27
2018-11-06T11:15:46.880Z,99676.45
2018-11-06T11:18:14.532Z,99676.98
2018-11-06T11:20:42.210Z,99678.17
2018-11-06T11:23:09.896Z,99670.72
2018-11-06T11:25:37.614Z,99671.92
2018-11-06T11:28:05.352Z,99659.23
2018-11-06T11:30:33.125Z,99654.32
2018-11-06T11:33:00.838Z,99648.75
2018-11-06T11:35:28.590Z,99647.93
2018-11-06T11:37:56.290Z,99648.45
2018-11-06T11:40:24.000Z,99650.68
2018-11-06T11:42:51.721Z,99648.75
2018-11-06T11:45:19.434Z,99644.84
2018-11-06T11:47:47.140Z,99644.84
2018-11-06T11:50:15.470Z,99639.41
2018-11-06T11:52:43.397Z,99651.02
2018-11-06T11:55:11.201Z,99637.44
2018-11-06T11:57:39.189Z,99633.67
2018-11-06T12:00:09.645Z,99628.72
2018-11-06T12:02:37.282Z,99626.20
2018-11-06T12:05:06.757Z,99627.02
2018-11-06T12:07:34.484Z,99625.67
2018-11-06T12:10:02.245Z,99627.87
2018-11-06T12:12:30.208Z,99629.02
2018-11-06T12:14:59.020Z,99616.62
2018-11-06T12:17:26.879Z,99614.39
2018-11-06T12:19:54.614Z,99610.27
2018-11-06T12:22:22.292Z,99606.89
2018-11-06T12:24:50.126Z,99605.77
2018-11-06T12:27:17.672Z,99598.63
2018-11-06T12:29:45.397Z,99601.31
2018-11-06T12:32:13.141Z,99596.28
2018-11-06T12:34:40.877Z,99596.58
2018-11-06T12:37:08.716Z,99599.85
2018-11-06T12:39:36.391Z,99594.86
2018-11-06T12:42:04.600Z,99591.77
2018-11-06T12:44:32.342Z,99595.34
2018-11-06T12:47:00.048Z,99590.34
2018-11-06T12:49:27.721Z,99582.34
2018-11-06T12:51:55.435Z,99585.05
2018-11-06T12:54:23.165Z,99576.83
2018-11-06T12:56:50.908Z,99580.63
2018-11-06T12:59:18.617Z,99585.02
2018-11-06T13:01:46.452Z,99584.19
2018-11-06T13:04:14.118Z,99589.66
2018-11-06T13:06:41.839Z,99589.05
2018-11-06T13:09:10.580Z,99586.04
2018-11-06T13:11:38.530Z,99582.77
2018-11-06T13:14:06.854Z,99584.41
2018-11-06T13:16:34.916Z,99575.06
2018-11-06T13:19:02.608Z,99573.43
2018-11-06T13:21:30.273Z,99572.87
2018-11-06T13:23:57.986Z,99571.50
2018-11-06T13:26:25.863Z,99565.25
2018-11-06T13:28:53.405Z,99565.81
2018-11-06T13:31:21.071Z,99560.56
2018-11-06T13:33:48.777Z,99560.30
2018-11-06T13:36:16.485Z,99557.29
2018-11-06T13:38:44.136Z,99563.11
2018-11-06T13:41:11.820Z,99554.53
2018-11-06T13:43:39.727Z,99557.59
2018-11-06T13:46:07.316Z,99553.20
2018-11-06T13:48:35.077Z,99557.04
2018-11-06T13:51:02.753Z,99552.09
2018-11-06T13:53:30.456Z,99556.00
2018-11-06T13:55:58.137Z,99553.77
2018-11-06T13:58:25.797Z,99549.38
2018-11-06T14:00:53.485Z,99552.37
2018-11-06T14:03:21.145Z,99558.67
2018-11-06T14:05:48.888Z,99556.47
2018-11-06T14:08:16.574Z,99552.30
2018-11-06T14:10:44.217Z,99557.50
2018-11-06T14:13:11.949Z,99555.61
2018-11-06T14:15:39.676Z,99561.39
2018-11-06T14:18:07.418Z,99562.24
2018-11-06T14:20:35.146Z,99562.20
2018-11-06T14:23:02.912Z,99566.03
2018-11-06T14:25:30.654Z,99559.53
2018-11-06T14:27:58.324Z,99560.91
2018-11-06T14:30:26.053Z,99564.48
2018-11-06T14:32:53.781Z,99559.58
2018-11-06T14:35:21.455Z,99550.84
2018-11-06T14:37:49.301Z,99555.31
2018-11-06T14:40:17.346Z,99547.08
2018-11-06T14:42:45.449Z,99548.28
2018-11-06T14:45:15.637Z,99549.62
2018-11-06T14:47:44.078Z,99550.73
2018-11-06T14:50:12.205Z,99547.77
2018-11-06T14:52:39.937Z,99552.52
2018-11-06T14:55:09.927Z,99560.23
2018-11-06T14:57:37.638Z,99561.64
2018-11-06T15:00:11.460Z,99560.48
2018-11-06T15:02:39.568Z,99560.48
2018-11-06T15:05:07.306Z,99555.84
2018-11-06T15:07:35.022Z,99559.22
2018-11-06T15:10:03.005Z,99560.66
2018-11-06T15:12:30.771Z,99565.08
2018-11-06T15:14:58.556Z,99567.28
2018-11-06T15:17:26.309Z,99570.62
2018-11-06T15:19:54.038Z,99561.31
2018-11-06T15:22:21.677Z,99571.81
2018-11-06T15:24:49.292Z,99566.93
2018-11-06T15:27:17.269Z,99572.45
2018-11-06T15:29:45.000Z,99574.98
2018-11-06T15:32:12.726Z,99579.45
2018-11-06T15:34:41.102Z,99584.70
2018-11-06T15:37:09.265Z,99573.75
2018-11-06T15:39:37.046Z,99571.59
2018-11-06T15:42:04.791Z,99568.64
2018-11-06T15:44:32.556Z,99578.56
2018-11-06T15:47:00.413Z,99567.34
2018-11-06T15:49:28.165Z,99567.63
2018-11-06T15:51:55.861Z,99564.36
2018-11-06T15:54:23.570Z,99569.59
2018-11-06T15:56:51.210Z,99561.64
2018-11-06T15:59:18.926Z,99563.30
2018-11-06T16:01:46.717Z,99569.91
2018-11-06T16:04:14.351Z,99578.16
2018-11-06T16:06:42.113Z,99577.05
2018-11-06T16:09:09.813Z,99579.23
2018-11-06T16:11:37.584Z,99578.66
2018-11-06T16:14:05.301Z,99578.13
2018-11-06T16:16:33.434Z,99578.66
2018-11-06T16:19:01.322Z,99596.47
2018-11-06T16:21:29.091Z,99590.98
2018-11-06T16:23:57.551Z,99596.45
2018-11-06T16:26:25.588Z,99587.91
2018-11-06T16:28:53.378Z,99583.76
2018-11-06T16:31:21.053Z,99586.47
2018-11-06T16:33:48.877Z,99587.30
2018-11-06T16:36:16.665Z,99578.77
2018-11-06T16:38:44.433Z,99586.15
2018-11-06T16:41:12.125Z,99585.57
2018-11-06T16:43:39.872Z,99589.10
2018-11-06T16:46:07.591Z,99581.67
2018-11-06T16:48:35.399Z,99589.34
2018-11-06T16:51:05.780Z,99603.83
2018-11-06T16:53:33.620Z,99617.52
2018-11-06T16:56:01.339Z,99625.22
2018-11-06T16:58:29.085Z,99633.31
2018-11-06T17:00:56.986Z,99648.84
2018-11-06T17:03:24.567Z,99658.47
2018-11-06T17:05:52.260Z,99662.02
2018-11-06T17:08:19.970Z,99668.25
2018-11-06T17:10:47.725Z,99671.27
2018-11-06T17:13:15.451Z,99685.97
2018-11-06T17:15:43.160Z,99683.86
2018-11-06T17:18:10.845Z,99684.64
2018-11-06T17:20:38.641Z,99690.07
2018-11-06T17:23:06.324Z,99690.84
2018-11-06T17:25:34.114Z,99697.70
2018-11-06T17:28:01.733Z,99703.17
2018-11-06T17:30:29.414Z,99700.97
2018-11-06T17:32:57.075Z,99702.30
2018-11-06T17:35:24.699Z,99696.72
2018-11-06T17:37:52.431Z,99701.27
2018-11-06T17:40:20.704Z,99704.75
2018-11-06T17:42:48.481Z,99709.48
2018-11-06T17:45:17.741Z,99710.52
2018-11-06T17:47:45.380Z,99710.03
2018-11-06T17:50:14.158Z,99713.47
2018-11-06T17:52:41.832Z,99717.09
2018-11-06T17:55:11.196Z,99721.11
2018-11-06T17:57:39.413Z,99736.98
2018-11-06T18:00:11.725Z,99735.06
2018-11-06T18:02:39.650Z,99733.62
2018-11-06T18:05:07.850Z,99727.00
2018-11-06T18:07:35.558Z,99725.72
2018-11-06T18:10:03.321Z,99736.03
2018-11-06T18:12:30.985Z,99742.12
2018-11-06T18:14:58.677Z,99744.21
2018-11-06T18:17:26.408Z,99739.00
2018-11-06T18:19:54.013Z,99745.91
2018-11-06T18:22:21.761Z,99753.58
2018-11-06T18:24:49.442Z,99751.95
2018-11-06T18:27:17.102Z,99753.88
2018-11-06T18:29:45.109Z,99753.04
2018-11-06T18:32:13.238Z,99747.47
2018-11-06T18:34:40.957Z,99747.05
2018-11-06T18:37:08.645Z,99754.43
2018-11-06T18:39:36.338Z,99751.88
2018-11-06T18:42:04.245Z,99755.81
2018-11-06T18:44:31.964Z,99752.88
2018-11-06T18:46:59.674Z,99750.05
2018-11-06T18:49:27.397Z,99755.58
2018-11-06T18:51:55.137Z,99752.86
2018-11-06T18:54:23.265Z,99748.41
2018-11-06T18:56:50.940Z,99754.13
2018-11-06T18:59:18.608Z,99757.17
2018-11-06T19:01:46.308Z,99761.65
2018-11-06T19:04:14.013Z,99760.62
2018-11-06T19:06:41.713Z,99763.06
2018-11-06T19:09:10.969Z,99764.86
2018-11-06T19:11:38.940Z,99775.60
2018-11-06T19:14:06.730Z,99774.98
2018-11-06T19:16:34.497Z,99766.93
2018-11-06T19:19:02.206Z,99778.58
2018-11-06T19:21:31.096Z,99789.67
2018-11-06T19:23:58.909Z,99797.57
2018-11-06T19:26:26.585Z,99799.12
2018-11-06T19:28:54.484Z,99815.02
2018-11-06T19:31:22.221Z,99812.86
2018-11-06T19:33:49.873Z,99822.83
2018-11-06T19:36:17.673Z,99823.21
2018-11-06T19:38:45.396Z,99829.11
2018-11-06T19:41:13.106Z,99829.27
2018-11-06T19:43:40.796Z,99833.87
2018-11-06T19:46:08.542Z,99836.16
2018-11-06T19:48:36.238Z,99834.70
2018-11-06T19:51:04.029Z,99839.08
2018-11-06T19:53:31.851Z,99836.76
2018-11-06T19:55:59.453Z,99846.31
2018-11-06T19:58:27.190Z,99838.82
2018-11-06T20:00:54.891Z,99847.83
2018-11-06T20:03:25.344Z,99843.99
2018-11-06T20:05:53.192Z,99847.86
2018-11-06T20:08:20.805Z,99849.01
2018-11-06T20:10:48.461Z,99849.89
2018-11-06T20:13:16.664Z,99860.11
2018-11-06T20:15:44.414Z,99857.06
2018-11-06T20:18:12.122Z,99856.74
2018-11-06T20:20:39.781Z,99875.80
2018-11-06T20:23:07.423Z,99881.62
2018-11-06T20:25:35.116Z,99876.06
2018-11-06T20:28:02.821Z,99875.02
2018-11-06T20:30:30.525Z,99861.98
2018-11-06T20:32:58.250Z,99872.74
2018-11-06T20:35:25.985Z,99878.73
2018-11-06T20:37:53.696Z,99884.95
2018-11-06T20:40:22.788Z,99877.59
2018-11-06T20:42:50.575Z,99874.49
2018-11-06T20:45:19.012Z,99879.31
2018-11-06T20:47:46.738Z,99883.19
2018-11-06T20:50:16.235Z,99887.28
2018-11-06T20:52:44.095Z,99896.83
2018-11-06T20:55:12.887Z,99888.75
2018-11-06T20:57:40.552Z,99895.28
2018-11-06T21:00:16.445Z,99901.82
2018-11-06T21:02:44.196Z,99896.68
2018-11-06T21:05:12.541Z,99899.19
2018-11-06T21:07:40.209Z,99891.00
2018-11-06T21:10:08.013Z,99896.49
2018-11-06T21:12:35.787Z,99896.05
2018-11-06T21:15:03.745Z,99897.95
2018-11-06T21:17:31.477Z,99890.09
2018-11-06T21:19:59.277Z,99879.23
2018-11-06T21:22:26.858Z,99886.78
2018-11-06T21:24:54.706Z,99900.14
2018-11-06T21:27:22.281Z,99896.63
2018-11-06T21:29:49.949Z,99891.16
2018-11-06T21:32:17.668Z,99895.33
2018-11-06T21:34:45.361Z,99894.25
2018-11-06T21:37:13.100Z,99898.88
2018-11-06T21:39:40.826Z,99914.75
2018-11-06T21:42:08.588Z,99911.23
2018-11-06T21:44:36.192Z,99899.23
2018-11-06T21:47:04.078Z,99893.17
2018-11-06T21:49:31.858Z,99894.28
2018-11-06T21:51:59.492Z,99892.88
2018-11-06T21:54:27.179Z,99902.72
2018-11-06T21:56:54.902Z,99897.35
2018-11-06T21:59:22.565Z,99895.41
2018-11-06T22:01:50.773Z,99891.32
2018-11-06T22:04:18.448Z,99882.34
2018-11-06T22:06:46.141Z,99874.47
2018-11-06T22:09:13.869Z,99873.10
2018-11-06T22:11:41.561Z,99876.38
2018-11-06T22:14:09.293Z,99874.08
2018-11-06T22:16:37.669Z,99886.44
2018-11-06T22:19:05.429Z,99890.20
2018-11-06T22:21:33.209Z,99888.27
2018-11-06T22:24:00.858Z,99892.97
2018-11-06T22:26:28.661Z,99891.00
2018-11-06T22:28:56.380Z,99897.89
2018-11-06T22:31:24.175Z,99911.31
2018-11-06T22:33:51.797Z,99915.59
2018-11-06T22:36:19.445Z,99912.58
2018-11-06T22:38:47.185Z,99921.56
2018-11-06T22:41:14.896Z,99926.23
2018-11-06T22:43:42.637Z,99915.59
2018-11-06T22:46:10.308Z,99922.97
2018-11-06T22:48:38.090Z,99921.31
2018-11-06T22:51:06.338Z,99919.05
2018-11-06T22:53:34.037Z,99924.13
2018-11-06T22:56:01.752Z,99924.13
2018-11-06T22:58:29.461Z,99933.06
2018-11-06T23:01:02.838Z,99934.43
2018-11-06T23:03:30.521Z,99935.69
2018-11-06T23:05:58.342Z,99939.67
2018-11-06T23:08:26.865Z,99946.20
2018-11-06T23:10:54.893Z,99939.09
2018-11-06T23:13:25.700Z,99942.00
2018-11-06T23:15:53.376Z,99948.75
2018-11-06T23:18:21.133Z,99943.24
2018-11-06T23:20:48.789Z,99941.02
2018-11-06T23:23:16.513Z,99942.42
2018-11-06T23:25:44.338Z,99948.21
2018-11-06T23:28:12.095Z,99956.68
2018-11-06T23:30:39.841Z,99958.80
2018-11-06T23:33:07.564Z,99951.78
2018-11-06T23:35:35.290Z,99955.58
2018-11-06T23:38:02.990Z,99950.67
2018-11-06T23:40:30.673Z,99951.25
2018-11-06T23:42:58.413Z,99951.25
2018-11-06T23:45:26.155Z,99953.21
2018-11-06T23:47:53.856Z,99947.87
2018-11-06T23:50:21.609Z,99939.70
2018-11-06T23:52:49.316Z,99943.89
2018-11-06T23:55:17.057Z,99951.36
2018-11-06T23:57:44.800Z,99959.48
